createdAt,value
2018-11-27T00:01:23.511Z,1.81
2018-11-27T00:03:58.322Z,1.77
2018-11-27T00:06:40.388Z,1.81
2018-11-27T00:09:15.608Z,1.85
2018-11-27T00:11:50.383Z,1.79
2018-11-27T00:14:25.026Z,1.84
2018-11-27T00:16:59.551Z,1.72
2018-11-27T00:19:34.035Z,1.77
2018-11-27T00:22:08.363Z,1.78
2018-11-27T00:24:42.891Z,1.72
2018-11-27T00:27:17.562Z,1.75
2018-11-27T00:29:52.246Z,1.67
2018-11-27T00:32:26.818Z,1.71
2018-11-27T00:35:01.503Z,1.73
2018-11-27T00:37:36.063Z,1.79
2018-11-27T00:40:13.122Z,1.76
2018-11-27T00:42:47.679Z,1.75
2018-11-27T00:45:22.639Z,1.72
2018-11-27T00:47:57.016Z,1.71
2018-11-27T00:50:31.396Z,1.74
2018-11-27T00:53:06.339Z,1.71
2018-11-27T00:55:40.744Z,1.70
2018-11-27T00:58:15.278Z,1.76
2018-11-27T01:00:49.758Z,1.71
2018-11-27T01:03:24.044Z,1.67
2018-11-27T01:05:58.547Z,1.66
2018-11-27T01:08:33.045Z,1.66
2018-11-27T01:11:08.282Z,1.64
2018-11-27T01:13:42.732Z,1.63
2018-11-27T01:16:17.267Z,1.63
2018-11-27T01:18:51.763Z,1.61
2018-11-27T01:21:26.556Z,1.57
2018-11-27T01:24:00.991Z,1.56
2018-11-27T01:26:35.527Z,1.63
2018-11-27T01:29:10.330Z,1.55
2018-11-27T01:31:44.621Z,1.62
2018-11-27T01:34:18.894Z,1.63
2018-11-27T01:36:53.739Z,1.70
2018-11-27T01:39:28.013Z,1.66
2018-11-27T01:42:02.566Z,1.60
2018-11-27T01:44:36.885Z,1.57
2018-11-27T01:47:11.863Z,1.48
2018-11-27T01:49:46.714Z,1.48
2018-11-27T01:52:21.512Z,1.51
2018-11-27T01:54:56.651Z,1.48
2018-11-27T01:57:30.990Z,1.56
2018-11-27T02:00:36.441Z,1.52
2018-11-27T02:03:10.965Z,1.52
2018-11-27T02:05:45.986Z,1.48
2018-11-27T02:08:20.547Z,1.48
2018-11-27T02:10:55.773Z,1.56
2018-11-27T02:13:30.043Z,1.62
2018-11-27T02:16:05.002Z,1.63
2018-11-27T02:18:39.376Z,1.64
2018-11-27T02:21:14.042Z,1.58
2018-11-27T02:23:49.096Z,1.57
2018-11-27T02:26:24.079Z,1.68
2018-11-27T02:28:58.418Z,1.65
2018-11-27T02:31:33.513Z,1.71
2018-11-27T02:34:08.699Z,1.66
2018-11-27T02:36:43.110Z,1.59
2018-11-27T02:39:17.523Z,1.68
2018-11-27T02:41:51.978Z,1.65
2018-11-27T02:44:26.323Z,1.51
2018-11-27T02:47:00.732Z,1.56
2018-11-27T02:49:35.408Z,1.62
2018-11-27T02:52:09.935Z,1.66
2018-11-27T02:54:44.435Z,1.67
2018-11-27T02:57:19.115Z,1.77
2018-11-27T02:59:53.586Z,1.67
2018-11-27T03:02:28.271Z,1.69
2018-11-27T03:05:03.023Z,1.72
2018-11-27T03:07:37.600Z,1.54
2018-11-27T03:10:15.859Z,1.50
2018-11-27T03:12:50.182Z,1.44
2018-11-27T03:15:24.951Z,1.50
2018-11-27T03:17:59.667Z,1.45
2018-11-27T03:20:33.940Z,1.49
2018-11-27T03:23:08.818Z,1.49
2018-11-27T03:25:43.377Z,1.55
2018-11-27T03:28:18.435Z,1.63
2018-11-27T03:30:53.000Z,1.65
2018-11-27T03:33:27.497Z,1.57
2018-11-27T03:36:01.763Z,1.56
2018-11-27T03:38:36.285Z,1.57
2018-11-27T03:41:11.044Z,1.54
2018-11-27T03:43:45.695Z,1.56
2018-11-27T03:46:20.687Z,1.57
2018-11-27T03:48:55.814Z,1.60
2018-11-27T03:51:30.648Z,1.61
2018-11-27T03:54:05.765Z,1.67
2018-11-27T03:56:40.514Z,1.72
2018-11-27T03:59:15.371Z,1.83
2018-11-27T04:01:50.487Z,1.75
2018-11-27T04:04:24.792Z,1.83
2018-11-27T04:06:59.975Z,1.82
2018-11-27T04:09:34.459Z,1.75
2018-11-27T04:12:09.092Z,1.64
2018-11-27T04:14:43.361Z,1.71
2018-11-27T04:17:20.282Z,1.69
2018-11-27T04:19:55.171Z,1.69
2018-11-27T04:22:29.667Z,1.76
2018-11-27T04:25:04.508Z,1.77
2018-11-27T04:27:39.730Z,1.71
2018-11-27T04:30:18.104Z,1.61
2018-11-27T04:32:52.440Z,1.55
2018-11-27T04:35:27.066Z,1.61
2018-11-27T04:38:01.451Z,1.57
2018-11-27T04:40:36.091Z,1.61
2018-11-27T04:43:10.560Z,1.66
2018-11-27T04:45:45.274Z,1.64
2018-11-27T04:48:19.537Z,1.62
2018-11-27T04:50:54.439Z,1.65
2018-11-27T04:53:29.106Z,1.67
2018-11-27T04:56:03.803Z,1.62
2018-11-27T04:58:38.304Z,1.59
2018-11-27T05:01:12.954Z,1.60
2018-11-27T05:03:47.427Z,1.78
2018-11-27T05:06:22.261Z,1.72
2018-11-27T05:08:56.779Z,1.64
2018-11-27T05:11:31.543Z,1.62
2018-11-27T05:14:07.185Z,1.57
2018-11-27T05:16:41.631Z,1.49
2018-11-27T05:19:16.019Z,1.63
2018-11-27T05:21:50.443Z,1.62
2018-11-27T05:24:24.793Z,1.68
2018-11-27T05:26:59.582Z,1.72
2018-11-27T05:29:34.504Z,1.70
2018-11-27T05:32:09.411Z,1.64
2018-11-27T05:34:43.975Z,1.68
2018-11-27T05:37:19.286Z,1.64
2018-11-27T05:39:54.022Z,1.55
2018-11-27T05:42:28.799Z,1.61
2018-11-27T05:45:03.287Z,1.52
2018-11-27T05:47:38.106Z,1.53
2018-11-27T05:50:13.718Z,1.52
2018-11-27T05:52:48.957Z,1.47
2018-11-27T05:55:23.975Z,1.39
2018-11-27T05:57:58.470Z,1.48
2018-11-27T06:00:33.234Z,1.46
2018-11-27T06:03:09.748Z,1.52
2018-11-27T06:05:44.819Z,1.48
2018-11-27T06:08:19.229Z,1.47
2018-11-27T06:10:53.882Z,1.52
2018-11-27T06:13:28.599Z,1.44
2018-11-27T06:16:03.018Z,1.45
2018-11-27T06:18:37.686Z,1.45
2018-11-27T06:21:12.331Z,1.41
2018-11-27T06:23:46.865Z,1.40
2018-11-27T06:26:21.421Z,1.50
2018-11-27T06:28:55.783Z,1.50
2018-11-27T06:31:30.069Z,1.52
2018-11-27T06:34:04.657Z,1.58
2018-11-27T06:36:39.340Z,1.46
2018-11-27T06:39:13.687Z,1.44
2018-11-27T06:41:48.284Z,1.50
2018-11-27T06:44:22.817Z,1.43
2018-11-27T06:46:57.795Z,1.37
2018-11-27T06:49:33.081Z,1.52
2018-11-27T06:52:07.963Z,1.58
2018-11-27T06:54:42.367Z,1.52
2018-11-27T06:57:16.846Z,1.50
2018-11-27T06:59:51.275Z,1.53
2018-11-27T07:02:26.158Z,1.49
2018-11-27T07:05:00.965Z,1.49
2018-11-27T07:07:35.782Z,1.59
2018-11-27T07:10:18.852Z,1.46
2018-11-27T07:12:55.461Z,1.49
2018-11-27T07:15:29.824Z,1.58
2018-11-27T07:18:05.646Z,1.52
2018-11-27T07:20:40.443Z,1.46
2018-11-27T07:23:14.866Z,1.44
2018-11-27T07:25:49.505Z,1.52
2018-11-27T07:28:23.934Z,1.57
2018-11-27T07:30:58.715Z,1.65
2018-11-27T07:33:33.611Z,1.70
2018-11-27T07:36:08.294Z,1.71
2018-11-27T07:38:42.750Z,1.80
2018-11-27T07:41:17.400Z,1.80
2018-11-27T07:43:52.102Z,1.90
2018-11-27T07:46:26.902Z,1.79
2018-11-27T07:49:01.811Z,1.83
2018-11-27T07:51:36.154Z,1.83
2018-11-27T07:54:10.649Z,1.75
2018-11-27T07:56:45.196Z,1.84
2018-11-27T07:59:19.674Z,1.92
2018-11-27T08:01:54.554Z,2.00
2018-11-27T08:04:29.223Z,1.99
2018-11-27T08:07:04.044Z,2.02
2018-11-27T08:09:38.818Z,2.03
2018-11-27T08:12:13.129Z,2.09
2018-11-27T08:14:47.450Z,2.11
2018-11-27T08:17:21.971Z,2.10
2018-11-27T08:19:56.423Z,2.06
2018-11-27T08:22:31.455Z,2.12
2018-11-27T08:25:08.355Z,2.10
2018-11-27T08:27:42.954Z,2.22
2018-11-27T08:30:18.913Z,2.17
2018-11-27T08:32:55.479Z,2.15
2018-11-27T08:35:30.674Z,2.21
2018-11-27T08:38:05.735Z,2.04
2018-11-27T08:40:40.510Z,2.12
2018-11-27T08:43:14.911Z,2.10
2018-11-27T08:45:49.600Z,2.18
2018-11-27T08:48:24.463Z,2.20
2018-11-27T08:50:59.242Z,2.24
2018-11-27T08:53:33.573Z,2.32
2018-11-27T08:56:08.051Z,2.30
2018-11-27T08:58:42.498Z,2.24
2018-11-27T09:01:17.419Z,2.24
2018-11-27T09:03:52.855Z,2.31
2018-11-27T09:06:27.299Z,2.39
2018-11-27T09:09:01.702Z,2.34
2018-11-27T09:11:36.787Z,2.34
2018-11-27T09:14:11.480Z,2.34
2018-11-27T09:16:45.983Z,2.36
2018-11-27T09:19:20.370Z,2.43
2018-11-27T09:21:55.242Z,2.50
2018-11-27T09:24:30.073Z,2.53
2018-11-27T09:27:04.686Z,2.51
2018-11-27T09:29:39.003Z,2.63
2018-11-27T09:32:13.416Z,2.64
2018-11-27T09:34:48.373Z,2.65
2018-11-27T09:37:23.308Z,2.70
2018-11-27T09:39:57.996Z,2.66
2018-11-27T09:42:32.626Z,2.60
2018-11-27T09:45:09.276Z,2.62
2018-11-27T09:47:44.514Z,2.63
2018-11-27T09:50:19.412Z,2.57
2018-11-27T09:52:53.779Z,2.60
2018-11-27T09:55:28.558Z,2.63
2018-11-27T09:58:03.071Z,2.56
2018-11-27T10:00:37.505Z,2.61
2018-11-27T10:03:14.142Z,2.68
2018-11-27T10:05:48.784Z,2.77
2018-11-27T10:08:23.167Z,2.85
2018-11-27T10:10:57.939Z,2.85
2018-11-27T10:13:32.564Z,2.80
2018-11-27T10:16:07.087Z,2.84
2018-11-27T10:18:41.693Z,2.83
2018-11-27T10:21:16.379Z,2.86
2018-11-27T10:23:50.867Z,2.78
2018-11-27T10:26:25.643Z,2.64
2018-11-27T10:29:00.860Z,2.65
2018-11-27T10:31:35.631Z,2.58
2018-11-27T10:34:09.895Z,2.62
2018-11-27T10:36:44.298Z,2.55
2018-11-27T10:39:18.590Z,2.48
2018-11-27T10:41:53.199Z,2.53
2018-11-27T10:44:27.775Z,2.58
2018-11-27T10:47:02.503Z,2.64
2018-11-27T10:49:38.142Z,2.68
2018-11-27T10:52:11.446Z,2.71
2018-11-27T10:54:45.752Z,2.76
2018-11-27T10:57:20.911Z,2.70
2018-11-27T10:59:55.666Z,2.72
2018-11-27T11:02:34.765Z,2.77
2018-11-27T11:05:09.206Z,2.67
2018-11-27T11:07:43.855Z,2.70
2018-11-27T11:10:18.238Z,2.68
2018-11-27T11:12:53.100Z,2.64
2018-11-27T11:15:27.475Z,2.66
2018-11-27T11:18:01.922Z,2.78
2018-11-27T11:20:36.734Z,2.82
2018-11-27T11:23:11.199Z,2.77
2018-11-27T11:25:45.970Z,2.81
2018-11-27T11:28:22.582Z,2.84
2018-11-27T11:30:56.853Z,2.87
2018-11-27T11:33:31.523Z,2.85
2018-11-27T11:36:06.799Z,2.76
2018-11-27T11:38:41.783Z,2.83
2018-11-27T11:41:16.775Z,2.75
2018-11-27T11:43:51.467Z,2.74
2018-11-27T11:46:25.807Z,2.80
2018-11-27T11:49:01.999Z,2.86
2018-11-27T11:51:35.035Z,2.97
2018-11-27T11:54:09.515Z,3.01
2018-11-27T11:56:43.898Z,3.13
2018-11-27T11:59:18.312Z,3.08
2018-11-27T12:01:52.962Z,3.05
2018-11-27T12:04:27.940Z,3.05
2018-11-27T12:07:02.601Z,3.00
2018-11-27T12:09:38.101Z,3.00
2018-11-27T12:12:12.690Z,3.06
2018-11-27T12:14:47.108Z,3.00
2018-11-27T12:17:22.034Z,3.01
2018-11-27T12:19:56.819Z,3.00
2018-11-27T12:22:31.925Z,3.04
2018-11-27T12:25:09.320Z,3.08
2018-11-27T12:27:43.936Z,3.08
2018-11-27T12:30:23.277Z,2.95
2018-11-27T12:32:57.883Z,3.00
2018-11-27T12:35:33.157Z,2.95
2018-11-27T12:38:07.903Z,2.95
2018-11-27T12:40:42.822Z,2.89
2018-11-27T12:43:17.593Z,2.89
2018-11-27T12:45:52.533Z,2.83
2018-11-27T12:48:27.057Z,2.78
2018-11-27T12:51:01.520Z,2.69
2018-11-27T12:53:36.734Z,2.74
2018-11-27T12:56:11.479Z,2.71
2018-11-27T12:58:46.243Z,2.73
2018-11-27T13:01:21.015Z,2.76
2018-11-27T13:03:55.811Z,2.80
2018-11-27T13:06:30.286Z,2.85
2018-11-27T13:09:08.276Z,2.81
2018-11-27T13:11:42.668Z,2.84
2018-11-27T13:14:17.215Z,2.87
2018-11-27T13:16:52.389Z,2.91
2018-11-27T13:19:26.858Z,2.92
2018-11-27T13:22:01.432Z,2.88
2018-11-27T13:24:36.421Z,2.91
2018-11-27T13:27:11.194Z,2.93
2018-11-27T13:29:46.101Z,2.95
2018-11-27T13:32:20.808Z,2.95
2018-11-27T13:34:55.088Z,2.91
2018-11-27T13:37:29.628Z,2.89
2018-11-27T13:40:04.499Z,2.85
2018-11-27T13:42:39.908Z,2.87
2018-11-27T13:45:15.490Z,2.95
2018-11-27T13:47:50.398Z,2.93
2018-11-27T13:50:25.229Z,2.95
2018-11-27T13:52:59.958Z,2.92
2018-11-27T13:55:34.489Z,2.86
2018-11-27T13:58:09.460Z,2.81
2018-11-27T14:00:44.191Z,2.84
2018-11-27T14:03:18.553Z,2.88
2018-11-27T14:05:53.399Z,2.93
2018-11-27T14:08:29.511Z,2.94
2018-11-27T14:11:04.483Z,3.02
2018-11-27T14:13:40.484Z,3.00
2018-11-27T14:16:16.034Z,3.03
2018-11-27T14:18:51.277Z,2.93
2018-11-27T14:21:25.975Z,2.87
2018-11-27T14:24:00.980Z,2.84
2018-11-27T14:26:36.036Z,2.83
2018-11-27T14:29:10.734Z,2.66
2018-11-27T14:31:45.329Z,2.59
2018-11-27T14:34:19.930Z,2.64
2018-11-27T14:36:54.394Z,2.67
2018-11-27T14:39:30.171Z,2.59
2018-11-27T14:42:04.983Z,2.64
2018-11-27T14:44:39.741Z,2.65
2018-11-27T14:47:14.731Z,2.59
2018-11-27T14:49:49.720Z,2.68
2018-11-27T14:52:24.389Z,2.69
2018-11-27T14:54:59.158Z,2.71
2018-11-27T14:57:34.466Z,2.57
2018-11-27T15:00:13.415Z,2.65
2018-11-27T15:02:48.457Z,2.70
2018-11-27T15:05:25.346Z,2.67
2018-11-27T15:08:00.668Z,2.69
2018-11-27T15:10:35.384Z,2.67
2018-11-27T15:13:10.722Z,2.65
2018-11-27T15:15:45.402Z,2.65
2018-11-27T15:18:20.771Z,2.64
2018-11-27T15:20:55.173Z,2.62
2018-11-27T15:23:30.063Z,2.52
2018-11-27T15:26:06.133Z,2.42
2018-11-27T15:29:08.635Z,2.40
2018-11-27T15:31:43.094Z,2.46
2018-11-27T15:34:18.269Z,2.48
2018-11-27T15:36:52.966Z,2.55
2018-11-27T15:39:27.910Z,2.57
2018-11-27T15:42:02.843Z,2.50
2018-11-27T15:44:37.414Z,2.46
2018-11-27T15:47:11.746Z,2.46
2018-11-27T15:49:46.023Z,2.47
2018-11-27T15:52:20.481Z,2.45
2018-11-27T15:54:55.291Z,2.47
2018-11-27T15:57:29.775Z,2.49
2018-11-27T16:00:04.627Z,2.45
2018-11-27T16:02:39.410Z,2.51
2018-11-27T16:05:14.370Z,2.46
2018-11-27T16:07:49.153Z,2.47
2018-11-27T16:10:24.010Z,2.47
2018-11-27T16:12:58.872Z,2.43
2018-11-27T16:15:33.546Z,2.45
2018-11-27T16:18:08.878Z,2.44
2018-11-27T16:20:43.688Z,2.45
2018-11-27T16:23:18.116Z,2.46
2018-11-27T16:25:52.547Z,2.44
2018-11-27T16:28:27.417Z,2.42
2018-11-27T16:31:02.328Z,2.42
2018-11-27T16:33:37.815Z,2.37
2018-11-27T16:36:12.318Z,2.39
2018-11-27T16:38:47.240Z,2.40
2018-11-27T16:41:21.786Z,2.36
2018-11-27T16:43:56.859Z,2.36
2018-11-27T16:46:31.776Z,2.39
2018-11-27T16:49:06.505Z,2.42
2018-11-27T16:51:41.299Z,2.36
2018-11-27T16:54:15.965Z,2.33
2018-11-27T16:56:50.698Z,2.27
2018-11-27T17:02:02.320Z,2.28
2018-11-27T17:04:37.082Z,2.31
2018-11-27T17:07:15.339Z,2.32
2018-11-27T17:09:53.399Z,2.38
2018-11-27T17:12:27.950Z,2.39
2018-11-27T17:15:02.635Z,2.41
2018-11-27T17:17:37.246Z,2.39
2018-11-27T17:20:27.916Z,2.37
2018-11-27T17:23:04.427Z,2.34
2018-11-27T17:25:39.419Z,2.33
2018-11-27T17:28:15.943Z,2.47
2018-11-27T17:31:08.778Z,2.44
2018-11-27T17:33:51.474Z,2.42
2018-11-27T17:36:26.058Z,2.44
2018-11-27T17:39:00.519Z,2.40
2018-11-27T17:41:35.143Z,2.41
2018-11-27T17:44:14.199Z,2.38
2018-11-27T17:46:49.879Z,2.39
2018-11-27T17:49:24.403Z,2.35
2018-11-27T17:51:59.082Z,2.34
2018-11-27T17:54:33.862Z,2.33
2018-11-27T17:57:10.602Z,2.34
2018-11-27T17:59:45.447Z,2.32
2018-11-27T18:02:20.215Z,2.26
2018-11-27T18:04:55.228Z,2.26
2018-11-27T18:07:29.952Z,2.27
2018-11-27T18:10:07.787Z,2.35
2018-11-27T18:12:44.883Z,2.39
2018-11-27T18:15:20.932Z,2.49
2018-11-27T18:17:55.919Z,2.47
2018-11-27T18:20:30.725Z,2.46
2018-11-27T18:23:05.319Z,2.32
2018-11-27T18:25:40.251Z,2.38
2018-11-27T18:28:15.688Z,2.42
2018-11-27T18:30:50.286Z,2.43
2018-11-27T18:33:24.634Z,2.38
2018-11-27T18:35:59.712Z,2.42
2018-11-27T18:38:34.627Z,2.44
2018-11-27T18:41:09.150Z,2.46
2018-11-27T18:43:43.642Z,2.46
2018-11-27T18:46:18.058Z,2.40
2018-11-27T18:48:52.992Z,2.38
2018-11-27T18:51:27.591Z,2.38
2018-11-27T18:54:02.002Z,2.39
2018-11-27T18:56:36.562Z,2.45
2018-11-27T18:59:11.083Z,2.48
2018-11-27T19:01:46.323Z,2.47
2018-11-27T19:04:22.051Z,2.50
2018-11-27T19:06:56.532Z,2.47
2018-11-27T19:09:31.779Z,2.44
2018-11-27T19:12:06.569Z,2.50
2018-11-27T19:14:40.954Z,2.56
2018-11-27T19:17:15.291Z,2.50
2018-11-27T19:19:49.610Z,2.42
2018-11-27T19:22:24.040Z,2.48
2018-11-27T19:24:58.820Z,2.45
2018-11-27T19:27:33.526Z,2.45
2018-11-27T19:30:18.250Z,2.42
2018-11-27T19:32:52.708Z,2.40
2018-11-27T19:35:27.566Z,2.40
2018-11-27T19:38:02.058Z,2.48
2018-11-27T19:40:36.889Z,2.50
2018-11-27T19:43:11.751Z,2.51
2018-11-27T19:45:47.147Z,2.47
2018-11-27T19:48:21.932Z,2.47
2018-11-27T19:50:56.559Z,2.49
2018-11-27T19:53:30.955Z,2.39
2018-11-27T19:56:06.760Z,2.43
2018-11-27T19:58:41.222Z,2.49
2018-11-27T20:01:15.663Z,2.52
2018-11-27T20:03:50.450Z,2.56
2018-11-27T20:06:25.591Z,2.53
2018-11-27T20:09:00.366Z,2.50
2018-11-27T20:11:34.923Z,2.55
2018-11-27T20:14:09.839Z,2.54
2018-11-27T20:16:44.224Z,2.53
2018-11-27T20:19:19.160Z,2.49
2018-11-27T20:21:54.043Z,2.48
2018-11-27T20:24:29.177Z,2.52
2018-11-27T20:27:04.243Z,2.40
2018-11-27T20:29:38.636Z,2.37
2018-11-27T20:32:13.427Z,2.39
2018-11-27T20:34:48.320Z,2.40
2018-11-27T20:37:23.590Z,2.44
2018-11-27T20:39:58.643Z,2.46
2018-11-27T20:42:33.351Z,2.45
2018-11-27T20:45:19.177Z,2.45
2018-11-27T20:47:54.532Z,2.39
2018-11-27T20:50:28.982Z,2.42
2018-11-27T20:53:03.630Z,2.43
2018-11-27T20:55:38.131Z,2.50
2018-11-27T20:58:13.310Z,2.42
2018-11-27T21:00:49.759Z,2.47
2018-11-27T21:03:24.906Z,2.53
2018-11-27T21:06:00.243Z,2.50
2018-11-27T21:08:34.596Z,2.50
2018-11-27T21:11:09.621Z,2.45
2018-11-27T21:13:44.253Z,2.41
2018-11-27T21:16:18.899Z,2.46
2018-11-27T21:18:53.594Z,2.48
2018-11-27T21:21:28.094Z,2.43
2018-11-27T21:24:02.799Z,2.48
2018-11-27T21:26:37.233Z,2.34
2018-11-27T21:29:11.562Z,2.34
2018-11-27T21:31:46.880Z,2.27
2018-11-27T21:34:26.343Z,2.28
2018-11-27T21:37:01.319Z,2.34
2018-11-27T21:39:41.414Z,2.33
2018-11-27T21:42:17.458Z,2.38
2018-11-27T21:44:52.010Z,2.39
2018-11-27T21:47:26.915Z,2.49
2018-11-27T21:50:02.463Z,2.47
2018-11-27T21:52:37.087Z,2.47
2018-11-27T21:55:13.283Z,2.46
2018-11-27T21:57:47.670Z,2.45
2018-11-27T22:00:23.867Z,2.45
2018-11-27T22:02:59.091Z,2.42
2018-11-27T22:05:33.648Z,2.45
2018-11-27T22:08:09.139Z,2.45
2018-11-27T22:10:45.745Z,2.43
2018-11-27T22:13:20.308Z,2.46
2018-11-27T22:15:55.231Z,2.43
2018-11-27T22:18:29.823Z,2.38
2018-11-27T22:21:05.237Z,2.36
2018-11-27T22:23:39.541Z,2.33
2018-11-27T22:26:14.156Z,2.30
2018-11-27T22:28:49.199Z,2.29
2018-11-27T22:31:24.222Z,2.34
2018-11-27T22:33:58.648Z,2.37
2018-11-27T22:36:34.226Z,2.37
2018-11-27T22:39:09.667Z,2.36
2018-11-27T22:41:44.383Z,2.34
2018-11-27T22:44:19.126Z,2.15
2018-11-27T22:46:53.911Z,2.33
2018-11-27T22:49:28.353Z,2.24
2018-11-27T22:52:03.047Z,2.25
2018-11-27T22:54:37.704Z,2.20
2018-11-27T22:57:12.199Z,2.23
2018-11-27T22:59:46.631Z,2.26
2018-11-27T23:02:20.919Z,2.16
2018-11-27T23:04:55.755Z,2.12
2018-11-27T23:07:35.495Z,2.27
2018-11-27T23:10:10.489Z,2.32
2018-11-27T23:12:45.174Z,2.36
2018-11-27T23:15:21.519Z,2.33
2018-11-27T23:17:56.293Z,2.39
2018-11-27T23:20:30.868Z,2.41
2018-11-27T23:23:05.473Z,2.40
2018-11-27T23:25:40.296Z,2.40
2018-11-27T23:28:15.199Z,2.40
2018-11-27T23:30:49.902Z,2.35
2018-11-27T23:33:24.685Z,2.36
2018-11-27T23:35:59.271Z,2.40
2018-11-27T23:38:34.108Z,2.38
2018-11-27T23:41:08.643Z,2.39
2018-11-27T23:43:43.028Z,2.37
2018-11-27T23:46:17.479Z,2.42
2018-11-27T23:48:51.988Z,2.43
2018-11-27T23:51:27.159Z,2.43
2018-11-27T23:54:01.820Z,2.36
2018-11-27T23:56:36.526Z,2.31
2018-11-27T23:59:11.098Z,2.31
